sensor_id;sensor_type;location;lat;lon;timestamp;temperature;humidity
21353;DHT22;10834;52.268;6.770;2023-06-14T00:00:58;18.20;63.50
21353;DHT22;10834;52.268;6.770;2023-06-14T00:03:44;18.20;64.40
21353;DHT22;10834;52.268;6.770;2023-06-14T00:06:30;18.10;63.60
21353;DHT22;10834;52.268;6.770;2023-06-14T00:09:16;18.10;62.90
21353;DHT22;10834;52.268;6.770;2023-06-14T00:12:06;18.10;63.80
21353;DHT22;10834;52.268;6.770;2023-06-14T00:14:52;18.10;63.80
21353;DHT22;10834;52.268;6.770;2023-06-14T00:17:38;18.00;64.30
21353;DHT22;10834;52.268;6.770;2023-06-14T00:20:25;18.00;64.40
21353;DHT22;10834;52.268;6.770;2023-06-14T00:23:11;18.00;64.60
21353;DHT22;10834;52.268;6.770;2023-06-14T00:25:57;17.90;64.80
21353;DHT22;10834;52.268;6.770;2023-06-14T00:28:43;17.90;64.40
21353;DHT22;10834;52.268;6.770;2023-06-14T00:31:30;17.90;65.40
21353;DHT22;10834;52.268;6.770;2023-06-14T00:34:16;17.90;65.60
21353;DHT22;10834;52.268;6.770;2023-06-14T00:37:02;17.80;65.70
21353;DHT22;10834;52.268;6.770;2023-06-14T00:39:48;17.80;65.30
21353;DHT22;10834;52.268;6.770;2023-06-14T00:42:34;17.80;65.50
21353;DHT22;10834;52.268;6.770;2023-06-14T00:45:21;17.70;65.30
21353;DHT22;10834;52.268;6.770;2023-06-14T00:48:07;17.70;65.70
21353;DHT22;10834;52.268;6.770;2023-06-14T00:50:55;17.70;66.90
21353;DHT22;10834;52.268;6.770;2023-06-14T00:53:41;17.60;66.60
21353;DHT22;10834;52.268;6.770;2023-06-14T00:56:31;17.60;66.60
21353;DHT22;10834;52.268;6.770;2023-06-14T00:59:18;17.50;66.70
21353;DHT22;10834;52.268;6.770;2023-06-14T01:02:04;17.50;66.80
21353;DHT22;10834;52.268;6.770;2023-06-14T01:04:51;17.50;68.10
21353;DHT22;10834;52.268;6.770;2023-06-14T01:10:59;17.40;68.40
21353;DHT22;10834;52.268;6.770;2023-06-14T01:13:47;17.40;69.10
21353;DHT22;10834;52.268;6.770;2023-06-14T01:16:35;17.30;69.70
21353;DHT22;10834;52.268;6.770;2023-06-14T01:19:22;17.30;69.80
21353;DHT22;10834;52.268;6.770;2023-06-14T01:22:11;17.20;70.70
21353;DHT22;10834;52.268;6.770;2023-06-14T01:24:57;17.20;70.90
21353;DHT22;10834;52.268;6.770;2023-06-14T01:27:44;17.10;71.20
21353;DHT22;10834;52.268;6.770;2023-06-14T01:30:31;17.10;71.60
21353;DHT22;10834;52.268;6.770;2023-06-14T01:33:23;17.00;71.80
21353;DHT22;10834;52.268;6.770;2023-06-14T01:36:11;17.10;72.30
21353;DHT22;10834;52.268;6.770;2023-06-14T01:38:59;17.00;72.50
21353;DHT22;10834;52.268;6.770;2023-06-14T01:41:46;16.90;73.20
21353;DHT22;10834;52.268;6.770;2023-06-14T01:44:32;16.90;73.60
21353;DHT22;10834;52.268;6.770;2023-06-14T01:47:19;16.90;75.80
21353;DHT22;10834;52.268;6.770;2023-06-14T01:50:05;16.80;74.10
21353;DHT22;10834;52.268;6.770;2023-06-14T01:52:52;16.80;75.40
21353;DHT22;10834;52.268;6.770;2023-06-14T01:55:38;16.80;75.70
21353;DHT22;10834;52.268;6.770;2023-06-14T01:58:24;16.70;76.60
21353;DHT22;10834;52.268;6.770;2023-06-14T02:01:10;16.70;77.40
21353;DHT22;10834;52.268;6.770;2023-06-14T02:03:57;16.60;78.60
21353;DHT22;10834;52.268;6.770;2023-06-14T02:06:43;16.60;78.50
21353;DHT22;10834;52.268;6.770;2023-06-14T02:09:29;16.60;78.80
21353;DHT22;10834;52.268;6.770;2023-06-14T02:12:15;16.60;78.90
21353;DHT22;10834;52.268;6.770;2023-06-14T02:15:01;16.50;79.80
21353;DHT22;10834;52.268;6.770;2023-06-14T02:17:49;16.50;80.00
21353;DHT22;10834;52.268;6.770;2023-06-14T02:20:35;16.50;80.30
21353;DHT22;10834;52.268;6.770;2023-06-14T02:23:22;16.40;80.50
21353;DHT22;10834;52.268;6.770;2023-06-14T02:26:08;16.40;81.30
21353;DHT22;10834;52.268;6.770;2023-06-14T02:28:54;16.40;82.00
21353;DHT22;10834;52.268;6.770;2023-06-14T02:31:40;16.30;82.80
21353;DHT22;10834;52.268;6.770;2023-06-14T02:34:26;16.30;84.40
21353;DHT22;10834;52.268;6.770;2023-06-14T02:37:12;16.30;84.70
21353;DHT22;10834;52.268;6.770;2023-06-14T02:39:59;16.20;86.30
21353;DHT22;10834;52.268;6.770;2023-06-14T02:42:45;16.20;85.50
21353;DHT22;10834;52.268;6.770;2023-06-14T02:45:31;16.10;85.80
21353;DHT22;10834;52.268;6.770;2023-06-14T02:48:17;16.10;87.10
21353;DHT22;10834;52.268;6.770;2023-06-14T02:51:03;16.10;88.00
21353;DHT22;10834;52.268;6.770;2023-06-14T02:53:49;16.00;88.50
21353;DHT22;10834;52.268;6.770;2023-06-14T02:56:35;16.00;88.80
21353;DHT22;10834;52.268;6.770;2023-06-14T02:59:21;16.00;89.40
21353;DHT22;10834;52.268;6.770;2023-06-14T03:02:11;15.90;89.80
21353;DHT22;10834;52.268;6.770;2023-06-14T03:04:57;15.90;90.20
21353;DHT22;10834;52.268;6.770;2023-06-14T03:07:47;15.90;90.40
21353;DHT22;10834;52.268;6.770;2023-06-14T03:10:33;15.80;90.80
21353;DHT22;10834;52.268;6.770;2023-06-14T03:13:19;15.80;91.30
21353;DHT22;10834;52.268;6.770;2023-06-14T03:16:08;15.80;91.60
21353;DHT22;10834;52.268;6.770;2023-06-14T03:18:54;15.80;91.70
21353;DHT22;10834;52.268;6.770;2023-06-14T03:21:40;15.70;92.00
21353;DHT22;10834;52.268;6.770;2023-06-14T03:24:30;15.70;92.00
21353;DHT22;10834;52.268;6.770;2023-06-14T03:27:22;15.70;92.60
21353;DHT22;10834;52.268;6.770;2023-06-14T03:30:08;15.70;92.60
21353;DHT22;10834;52.268;6.770;2023-06-14T03:32:54;15.70;93.10
21353;DHT22;10834;52.268;6.770;2023-06-14T03:35:41;15.70;93.10
21353;DHT22;10834;52.268;6.770;2023-06-14T03:38:27;15.70;93.30
21353;DHT22;10834;52.268;6.770;2023-06-14T03:41:13;15.70;93.40
21353;DHT22;10834;52.268;6.770;2023-06-14T03:43:59;15.70;93.60
21353;DHT22;10834;52.268;6.770;2023-06-14T03:46:46;15.70;93.80
21353;DHT22;10834;52.268;6.770;2023-06-14T03:49:32;15.70;94.20
21353;DHT22;10834;52.268;6.770;2023-06-14T03:52:18;15.70;94.30
21353;DHT22;10834;52.268;6.770;2023-06-14T03:55:04;15.70;94.40
21353;DHT22;10834;52.268;6.770;2023-06-14T03:57:53;15.60;94.80
21353;DHT22;10834;52.268;6.770;2023-06-14T04:00:39;15.60;95.50
21353;DHT22;10834;52.268;6.770;2023-06-14T04:03:26;15.60;96.10
21353;DHT22;10834;52.268;6.770;2023-06-14T04:06:15;15.60;96.20
21353;DHT22;10834;52.268;6.770;2023-06-14T04:09:04;15.70;96.10
21353;DHT22;10834;52.268;6.770;2023-06-14T04:11:52;15.60;96.70
21353;DHT22;10834;52.268;6.770;2023-06-14T04:14:39;15.60;97.30
21353;DHT22;10834;52.268;6.770;2023-06-14T04:17:26;15.60;97.40
21353;DHT22;10834;52.268;6.770;2023-06-14T04:20:12;15.60;97.60
21353;DHT22;10834;52.268;6.770;2023-06-14T04:23:11;15.70;97.50
21353;DHT22;10834;52.268;6.770;2023-06-14T04:25:58;15.80;94.80
21353;DHT22;10834;52.268;6.770;2023-06-14T04:28:48;15.80;95.10
21353;DHT22;10834;52.268;6.770;2023-06-14T04:31:35;15.90;96.00
21353;DHT22;10834;52.268;6.770;2023-06-14T04:34:28;15.90;97.00
21353;DHT22;10834;52.268;6.770;2023-06-14T04:37:23;15.90;95.60
21353;DHT22;10834;52.268;6.770;2023-06-14T04:40:09;15.90;95.20
21353;DHT22;10834;52.268;6.770;2023-06-14T04:42:55;16.00;95.20
21353;DHT22;10834;52.268;6.770;2023-06-14T04:45:43;16.00;94.60
21353;DHT22;10834;52.268;6.770;2023-06-14T04:48:32;16.10;94.50
21353;DHT22;10834;52.268;6.770;2023-06-14T04:51:18;16.10;94.60
21353;DHT22;10834;52.268;6.770;2023-06-14T04:54:06;16.20;92.60
21353;DHT22;10834;52.268;6.770;2023-06-14T04:56:55;16.20;94.20
21353;DHT22;10834;52.268;6.770;2023-06-14T04:59:42;16.20;93.90
21353;DHT22;10834;52.268;6.770;2023-06-14T05:02:30;16.30;93.30
21353;DHT22;10834;52.268;6.770;2023-06-14T05:05:16;16.40;92.70
21353;DHT22;10834;52.268;6.770;2023-06-14T05:08:03;16.40;92.70
21353;DHT22;10834;52.268;6.770;2023-06-14T05:10:50;16.50;92.60
21353;DHT22;10834;52.268;6.770;2023-06-14T05:13:36;16.50;91.40
21353;DHT22;10834;52.268;6.770;2023-06-14T05:16:22;16.60;90.70
21353;DHT22;10834;52.268;6.770;2023-06-14T05:19:08;16.70;90.70
21353;DHT22;10834;52.268;6.770;2023-06-14T05:21:56;16.70;91.30
21353;DHT22;10834;52.268;6.770;2023-06-14T05:24:42;16.80;92.70
21353;DHT22;10834;52.268;6.770;2023-06-14T05:27:28;16.80;92.30
21353;DHT22;10834;52.268;6.770;2023-06-14T05:30:15;16.90;90.80
21353;DHT22;10834;52.268;6.770;2023-06-14T05:33:01;16.90;90.50
21353;DHT22;10834;52.268;6.770;2023-06-14T05:35:47;17.00;88.50
21353;DHT22;10834;52.268;6.770;2023-06-14T05:38:33;17.10;89.60
21353;DHT22;10834;52.268;6.770;2023-06-14T05:41:19;17.20;89.40
21353;DHT22;10834;52.268;6.770;2023-06-14T05:44:06;17.30;87.60
21353;DHT22;10834;52.268;6.770;2023-06-14T05:46:53;17.40;86.80
21353;DHT22;10834;52.268;6.770;2023-06-14T05:49:39;17.40;87.30
21353;DHT22;10834;52.268;6.770;2023-06-14T05:52:25;17.50;87.00
21353;DHT22;10834;52.268;6.770;2023-06-14T05:55:12;17.60;85.10
21353;DHT22;10834;52.268;6.770;2023-06-14T05:57:58;17.70;84.80
21353;DHT22;10834;52.268;6.770;2023-06-14T06:00:45;17.80;84.80
21353;DHT22;10834;52.268;6.770;2023-06-14T06:03:32;17.90;83.60
21353;DHT22;10834;52.268;6.770;2023-06-14T06:06:18;18.00;79.30
21353;DHT22;10834;52.268;6.770;2023-06-14T06:09:05;18.10;80.10
21353;DHT22;10834;52.268;6.770;2023-06-14T06:11:51;18.20;78.90
21353;DHT22;10834;52.268;6.770;2023-06-14T06:14:37;18.30;76.10
21353;DHT22;10834;52.268;6.770;2023-06-14T06:17:23;18.50;75.10
21353;DHT22;10834;52.268;6.770;2023-06-14T06:20:09;18.60;75.50
21353;DHT22;10834;52.268;6.770;2023-06-14T06:22:56;18.80;75.50
21353;DHT22;10834;52.268;6.770;2023-06-14T06:25:42;19.00;73.90
21353;DHT22;10834;52.268;6.770;2023-06-14T06:28:29;19.10;74.10
21353;DHT22;10834;52.268;6.770;2023-06-14T06:31:15;19.40;73.70
21353;DHT22;10834;52.268;6.770;2023-06-14T06:34:01;19.50;70.80
21353;DHT22;10834;52.268;6.770;2023-06-14T06:36:47;19.70;69.80
21353;DHT22;10834;52.268;6.770;2023-06-14T06:39:33;19.90;67.60
21353;DHT22;10834;52.268;6.770;2023-06-14T06:42:19;20.10;64.40
21353;DHT22;10834;52.268;6.770;2023-06-14T06:45:06;20.30;64.90
21353;DHT22;10834;52.268;6.770;2023-06-14T06:47:52;20.60;65.00
21353;DHT22;10834;52.268;6.770;2023-06-14T06:50:38;20.80;63.20
21353;DHT22;10834;52.268;6.770;2023-06-14T06:53:24;21.10;61.20
21353;DHT22;10834;52.268;6.770;2023-06-14T06:56:11;21.40;61.30
21353;DHT22;10834;52.268;6.770;2023-06-14T06:58:57;21.60;59.20
21353;DHT22;10834;52.268;6.770;2023-06-14T07:01:43;21.80;57.80
21353;DHT22;10834;52.268;6.770;2023-06-14T07:04:29;22.10;58.80
21353;DHT22;10834;52.268;6.770;2023-06-14T07:07:17;22.30;57.10
21353;DHT22;10834;52.268;6.770;2023-06-14T07:10:04;22.60;55.50
21353;DHT22;10834;52.268;6.770;2023-06-14T07:12:51;22.90;54.90
21353;DHT22;10834;52.268;6.770;2023-06-14T07:15:37;23.10;53.90
21353;DHT22;10834;52.268;6.770;2023-06-14T07:18:23;23.30;51.80
21353;DHT22;10834;52.268;6.770;2023-06-14T07:21:09;23.50;50.60
21353;DHT22;10834;52.268;6.770;2023-06-14T07:23:55;23.70;51.00
21353;DHT22;10834;52.268;6.770;2023-06-14T07:26:41;23.90;48.90
21353;DHT22;10834;52.268;6.770;2023-06-14T07:29:27;24.10;49.70
21353;DHT22;10834;52.268;6.770;2023-06-14T07:32:14;24.40;49.70
21353;DHT22;10834;52.268;6.770;2023-06-14T07:35:00;24.70;47.90
21353;DHT22;10834;52.268;6.770;2023-06-14T07:37:46;24.90;48.60
21353;DHT22;10834;52.268;6.770;2023-06-14T07:40:33;25.20;47.80
21353;DHT22;10834;52.268;6.770;2023-06-14T07:43:19;25.60;45.60
21353;DHT22;10834;52.268;6.770;2023-06-14T07:46:05;26.10;44.50
21353;DHT22;10834;52.268;6.770;2023-06-14T07:48:51;26.60;41.80
21353;DHT22;10834;52.268;6.770;2023-06-14T07:51:37;27.20;40.40
21353;DHT22;10834;52.268;6.770;2023-06-14T07:54:23;27.70;39.90
21353;DHT22;10834;52.268;6.770;2023-06-14T07:57:12;28.90;38.80
21353;DHT22;10834;52.268;6.770;2023-06-14T07:59:58;29.70;37.80
21353;DHT22;10834;52.268;6.770;2023-06-14T08:02:44;30.10;38.30
21353;DHT22;10834;52.268;6.770;2023-06-14T08:05:30;30.50;37.10
21353;DHT22;10834;52.268;6.770;2023-06-14T08:08:17;30.40;36.50
21353;DHT22;10834;52.268;6.770;2023-06-14T08:11:03;31.40;35.20
21353;DHT22;10834;52.268;6.770;2023-06-14T08:13:49;30.90;33.80
21353;DHT22;10834;52.268;6.770;2023-06-14T08:16:35;31.20;33.90
21353;DHT22;10834;52.268;6.770;2023-06-14T08:19:21;32.10;32.70
21353;DHT22;10834;52.268;6.770;2023-06-14T08:22:07;32.80;31.90
21353;DHT22;10834;52.268;6.770;2023-06-14T08:24:57;32.50;32.00
21353;DHT22;10834;52.268;6.770;2023-06-14T08:27:43;32.50;32.20
21353;DHT22;10834;52.268;6.770;2023-06-14T08:30:29;33.50;32.40
21353;DHT22;10834;52.268;6.770;2023-06-14T08:33:15;34.20;30.80
21353;DHT22;10834;52.268;6.770;2023-06-14T08:36:01;33.20;31.30
21353;DHT22;10834;52.268;6.770;2023-06-14T08:38:47;33.70;31.10
21353;DHT22;10834;52.268;6.770;2023-06-14T08:41:34;35.00;29.70
21353;DHT22;10834;52.268;6.770;2023-06-14T08:44:21;34.30;28.90
21353;DHT22;10834;52.268;6.770;2023-06-14T08:47:07;33.50;30.70
21353;DHT22;10834;52.268;6.770;2023-06-14T08:49:57;32.90;30.00
21353;DHT22;10834;52.268;6.770;2023-06-14T08:52:45;32.40;31.40
21353;DHT22;10834;52.268;6.770;2023-06-14T08:55:36;31.60;32.00
21353;DHT22;10834;52.268;6.770;2023-06-14T08:58:25;31.20;32.70
21353;DHT22;10834;52.268;6.770;2023-06-14T09:01:11;30.90;32.10
21353;DHT22;10834;52.268;6.770;2023-06-14T09:04:02;30.70;32.40
21353;DHT22;10834;52.268;6.770;2023-06-14T09:06:51;30.50;31.20
21353;DHT22;10834;52.268;6.770;2023-06-14T09:09:42;30.40;32.60
21353;DHT22;10834;52.268;6.770;2023-06-14T09:12:28;30.90;31.70
21353;DHT22;10834;52.268;6.770;2023-06-14T09:15:16;31.70;32.30
21353;DHT22;10834;52.268;6.770;2023-06-14T09:18:03;33.00;31.80
21353;DHT22;10834;52.268;6.770;2023-06-14T09:20:49;34.20;31.20
21353;DHT22;10834;52.268;6.770;2023-06-14T09:23:45;36.10;30.20
21353;DHT22;10834;52.268;6.770;2023-06-14T09:26:31;36.10;30.00
21353;DHT22;10834;52.268;6.770;2023-06-14T09:29:20;36.10;28.40
21353;DHT22;10834;52.268;6.770;2023-06-14T09:32:06;35.30;28.90
21353;DHT22;10834;52.268;6.770;2023-06-14T09:34:52;34.40;30.40
21353;DHT22;10834;52.268;6.770;2023-06-14T09:37:39;34.40;29.50
21353;DHT22;10834;52.268;6.770;2023-06-14T09:40:26;34.20;29.70
21353;DHT22;10834;52.268;6.770;2023-06-14T09:43:12;34.10;29.40
21353;DHT22;10834;52.268;6.770;2023-06-14T09:45:58;34.30;29.80
21353;DHT22;10834;52.268;6.770;2023-06-14T09:48:45;34.10;29.90
21353;DHT22;10834;52.268;6.770;2023-06-14T09:51:31;35.10;30.60
21353;DHT22;10834;52.268;6.770;2023-06-14T09:54:22;36.00;30.30
21353;DHT22;10834;52.268;6.770;2023-06-14T09:57:10;35.30;29.80
21353;DHT22;10834;52.268;6.770;2023-06-14T09:59:57;34.40;29.20
21353;DHT22;10834;52.268;6.770;2023-06-14T10:02:51;34.00;30.80
21353;DHT22;10834;52.268;6.770;2023-06-14T10:05:43;33.80;30.00
21353;DHT22;10834;52.268;6.770;2023-06-14T10:08:31;34.30;31.00
21353;DHT22;10834;52.268;6.770;2023-06-14T10:11:20;34.60;30.00
21353;DHT22;10834;52.268;6.770;2023-06-14T10:14:06;34.20;30.90
21353;DHT22;10834;52.268;6.770;2023-06-14T10:17:01;33.60;31.40
21353;DHT22;10834;52.268;6.770;2023-06-14T10:19:56;33.10;30.50
21353;DHT22;10834;52.268;6.770;2023-06-14T10:22:49;34.10;31.50
21353;DHT22;10834;52.268;6.770;2023-06-14T10:25:36;34.80;29.20
21353;DHT22;10834;52.268;6.770;2023-06-14T10:28:23;34.20;29.10
21353;DHT22;10834;52.268;6.770;2023-06-14T10:31:11;33.80;29.90
21353;DHT22;10834;52.268;6.770;2023-06-14T10:33:59;33.10;29.80
21353;DHT22;10834;52.268;6.770;2023-06-14T10:36:45;32.90;29.80
21353;DHT22;10834;52.268;6.770;2023-06-14T10:39:38;32.70;30.40
21353;DHT22;10834;52.268;6.770;2023-06-14T10:42:31;32.10;32.20
21353;DHT22;10834;52.268;6.770;2023-06-14T10:45:17;31.60;32.00
21353;DHT22;10834;52.268;6.770;2023-06-14T10:48:04;31.20;31.40
21353;DHT22;10834;52.268;6.770;2023-06-14T10:51:00;30.80;32.10
21353;DHT22;10834;52.268;6.770;2023-06-14T10:53:48;30.60;33.50
21353;DHT22;10834;52.268;6.770;2023-06-14T10:56:34;30.50;34.30
21353;DHT22;10834;52.268;6.770;2023-06-14T10:59:21;30.40;33.80
21353;DHT22;10834;52.268;6.770;2023-06-14T11:05:08;30.20;34.30
21353;DHT22;10834;52.268;6.770;2023-06-14T11:11:06;30.30;35.40
21353;DHT22;10834;52.268;6.770;2023-06-14T11:13:53;30.00;34.20
21353;DHT22;10834;52.268;6.770;2023-06-14T11:16:39;29.90;34.20
21353;DHT22;10834;52.268;6.770;2023-06-14T11:19:25;29.80;34.60
21353;DHT22;10834;52.268;6.770;2023-06-14T11:22:14;29.60;34.00
21353;DHT22;10834;52.268;6.770;2023-06-14T11:25:01;29.40;33.50
21353;DHT22;10834;52.268;6.770;2023-06-14T11:27:50;29.20;33.60
21353;DHT22;10834;52.268;6.770;2023-06-14T11:30:36;28.90;34.70
21353;DHT22;10834;52.268;6.770;2023-06-14T11:33:23;28.80;35.40
21353;DHT22;10834;52.268;6.770;2023-06-14T11:36:09;28.70;34.90
21353;DHT22;10834;52.268;6.770;2023-06-14T11:39:04;28.70;35.30
21353;DHT22;10834;52.268;6.770;2023-06-14T11:41:52;28.60;35.20
21353;DHT22;10834;52.268;6.770;2023-06-14T11:44:38;28.60;34.80
21353;DHT22;10834;52.268;6.770;2023-06-14T11:47:24;28.50;35.50
21353;DHT22;10834;52.268;6.770;2023-06-14T11:50:10;28.50;36.00
21353;DHT22;10834;52.268;6.770;2023-06-14T11:52:58;28.50;36.30
21353;DHT22;10834;52.268;6.770;2023-06-14T11:55:56;28.40;34.80
21353;DHT22;10834;52.268;6.770;2023-06-14T11:58:43;28.30;35.00
21353;DHT22;10834;52.268;6.770;2023-06-14T12:01:30;28.30;35.60
21353;DHT22;10834;52.268;6.770;2023-06-14T12:04:24;28.30;35.60
21353;DHT22;10834;52.268;6.770;2023-06-14T12:07:13;28.20;34.70
21353;DHT22;10834;52.268;6.770;2023-06-14T12:10:07;28.30;34.90
21353;DHT22;10834;52.268;6.770;2023-06-14T12:12:57;28.10;34.00
21353;DHT22;10834;52.268;6.770;2023-06-14T12:15:44;28.10;35.80
21353;DHT22;10834;52.268;6.770;2023-06-14T12:18:37;28.00;35.20
21353;DHT22;10834;52.268;6.770;2023-06-14T12:21:24;28.00;36.70
21353;DHT22;10834;52.268;6.770;2023-06-14T12:24:14;28.10;36.90
21353;DHT22;10834;52.268;6.770;2023-06-14T12:27:00;28.00;35.20
21353;DHT22;10834;52.268;6.770;2023-06-14T12:29:58;28.00;35.90
21353;DHT22;10834;52.268;6.770;2023-06-14T12:32:44;27.90;35.60
21353;DHT22;10834;52.268;6.770;2023-06-14T12:35:31;27.90;35.90
21353;DHT22;10834;52.268;6.770;2023-06-14T12:38:17;27.90;35.70
21353;DHT22;10834;52.268;6.770;2023-06-14T12:41:03;27.80;35.90
21353;DHT22;10834;52.268;6.770;2023-06-14T12:43:50;27.90;35.60
21353;DHT22;10834;52.268;6.770;2023-06-14T12:46:36;27.80;34.70
21353;DHT22;10834;52.268;6.770;2023-06-14T12:49:23;27.70;35.10
21353;DHT22;10834;52.268;6.770;2023-06-14T12:52:09;27.60;35.80
21353;DHT22;10834;52.268;6.770;2023-06-14T12:54:55;27.50;35.00
21353;DHT22;10834;52.268;6.770;2023-06-14T12:57:41;27.50;35.60
21353;DHT22;10834;52.268;6.770;2023-06-14T13:00:27;27.50;35.40
21353;DHT22;10834;52.268;6.770;2023-06-14T13:03:13;27.40;35.30
21353;DHT22;10834;52.268;6.770;2023-06-14T13:06:00;27.50;36.40
21353;DHT22;10834;52.268;6.770;2023-06-14T13:08:47;27.50;36.20
21353;DHT22;10834;52.268;6.770;2023-06-14T13:11:33;27.60;36.80
21353;DHT22;10834;52.268;6.770;2023-06-14T13:14:19;27.60;35.70
21353;DHT22;10834;52.268;6.770;2023-06-14T13:17:05;27.60;36.50
21353;DHT22;10834;52.268;6.770;2023-06-14T13:19:51;27.50;35.70
21353;DHT22;10834;52.268;6.770;2023-06-14T13:22:37;27.50;35.80
21353;DHT22;10834;52.268;6.770;2023-06-14T13:25:25;27.40;37.10
21353;DHT22;10834;52.268;6.770;2023-06-14T13:28:11;27.40;37.00
21353;DHT22;10834;52.268;6.770;2023-06-14T13:30:57;27.40;35.80
21353;DHT22;10834;52.268;6.770;2023-06-14T13:33:43;27.40;36.20
21353;DHT22;10834;52.268;6.770;2023-06-14T13:36:29;27.30;35.90
21353;DHT22;10834;52.268;6.770;2023-06-14T13:39:16;27.30;35.70
21353;DHT22;10834;52.268;6.770;2023-06-14T13:42:02;27.20;35.20
21353;DHT22;10834;52.268;6.770;2023-06-14T13:44:48;27.20;36.30
21353;DHT22;10834;52.268;6.770;2023-06-14T13:47:34;27.20;35.00
21353;DHT22;10834;52.268;6.770;2023-06-14T13:50:21;27.10;35.40
21353;DHT22;10834;52.268;6.770;2023-06-14T13:53:07;27.10;35.60
21353;DHT22;10834;52.268;6.770;2023-06-14T13:55:53;27.20;36.10
21353;DHT22;10834;52.268;6.770;2023-06-14T13:58:40;27.20;36.60
21353;DHT22;10834;52.268;6.770;2023-06-14T14:01:26;27.10;35.70
21353;DHT22;10834;52.268;6.770;2023-06-14T14:04:14;27.00;35.60
21353;DHT22;10834;52.268;6.770;2023-06-14T14:07:01;27.00;36.10
21353;DHT22;10834;52.268;6.770;2023-06-14T14:09:47;27.00;34.60
21353;DHT22;10834;52.268;6.770;2023-06-14T14:12:33;26.90;35.00
21353;DHT22;10834;52.268;6.770;2023-06-14T14:15:20;26.80;36.20
21353;DHT22;10834;52.268;6.770;2023-06-14T14:18:06;26.80;37.00
21353;DHT22;10834;52.268;6.770;2023-06-14T14:20:52;26.80;35.90
21353;DHT22;10834;52.268;6.770;2023-06-14T14:23:39;26.80;36.70
21353;DHT22;10834;52.268;6.770;2023-06-14T14:26:25;26.70;36.60
21353;DHT22;10834;52.268;6.770;2023-06-14T14:29:11;26.70;36.50
21353;DHT22;10834;52.268;6.770;2023-06-14T14:31:58;26.60;36.30
21353;DHT22;10834;52.268;6.770;2023-06-14T14:34:44;26.60;36.00
21353;DHT22;10834;52.268;6.770;2023-06-14T14:37:30;26.50;36.00
21353;DHT22;10834;52.268;6.770;2023-06-14T14:40:16;26.50;36.00
21353;DHT22;10834;52.268;6.770;2023-06-14T14:43:02;26.40;36.00
21353;DHT22;10834;52.268;6.770;2023-06-14T14:45:48;26.40;36.30
21353;DHT22;10834;52.268;6.770;2023-06-14T14:48:34;26.40;37.40
21353;DHT22;10834;52.268;6.770;2023-06-14T14:51:20;26.30;37.30
21353;DHT22;10834;52.268;6.770;2023-06-14T14:54:06;26.30;38.00
21353;DHT22;10834;52.268;6.770;2023-06-14T14:56:52;26.30;38.30
21353;DHT22;10834;52.268;6.770;2023-06-14T14:59:38;26.20;38.00
21353;DHT22;10834;52.268;6.770;2023-06-14T15:02:24;26.20;37.70
21353;DHT22;10834;52.268;6.770;2023-06-14T15:05:10;26.10;37.50
21353;DHT22;10834;52.268;6.770;2023-06-14T15:07:56;26.10;37.50
21353;DHT22;10834;52.268;6.770;2023-06-14T15:10:42;26.10;38.10
21353;DHT22;10834;52.268;6.770;2023-06-14T15:13:29;26.00;38.70
21353;DHT22;10834;52.268;6.770;2023-06-14T15:16:15;26.00;39.30
21353;DHT22;10834;52.268;6.770;2023-06-14T15:19:01;25.90;39.40
21353;DHT22;10834;52.268;6.770;2023-06-14T15:21:47;25.80;39.40
21353;DHT22;10834;52.268;6.770;2023-06-14T15:24:34;25.80;38.90
21353;DHT22;10834;52.268;6.770;2023-06-14T15:27:20;25.80;38.60
21353;DHT22;10834;52.268;6.770;2023-06-14T15:30:06;25.70;38.90
21353;DHT22;10834;52.268;6.770;2023-06-14T15:32:53;25.70;39.80
21353;DHT22;10834;52.268;6.770;2023-06-14T15:35:39;25.70;40.00
21353;DHT22;10834;52.268;6.770;2023-06-14T15:38:25;25.60;39.10
21353;DHT22;10834;52.268;6.770;2023-06-14T15:41:11;25.60;39.80
21353;DHT22;10834;52.268;6.770;2023-06-14T15:43:57;25.60;39.20
21353;DHT22;10834;52.268;6.770;2023-06-14T15:46:44;25.50;39.70
21353;DHT22;10834;52.268;6.770;2023-06-14T15:49:30;25.50;40.20
21353;DHT22;10834;52.268;6.770;2023-06-14T15:52:16;25.50;39.90
21353;DHT22;10834;52.268;6.770;2023-06-14T15:55:02;25.40;40.60
21353;DHT22;10834;52.268;6.770;2023-06-14T15:57:49;25.30;40.40
21353;DHT22;10834;52.268;6.770;2023-06-14T16:00:35;25.30;40.80
21353;DHT22;10834;52.268;6.770;2023-06-14T16:03:21;25.20;40.40
21353;DHT22;10834;52.268;6.770;2023-06-14T16:06:07;25.20;40.70
21353;DHT22;10834;52.268;6.770;2023-06-14T16:08:53;25.20;40.50
21353;DHT22;10834;52.268;6.770;2023-06-14T16:11:39;25.10;41.40
21353;DHT22;10834;52.268;6.770;2023-06-14T16:14:25;25.10;41.80
21353;DHT22;10834;52.268;6.770;2023-06-14T16:17:12;25.10;40.90
21353;DHT22;10834;52.268;6.770;2023-06-14T16:19:58;25.00;41.30
21353;DHT22;10834;52.268;6.770;2023-06-14T16:22:44;25.00;40.90
21353;DHT22;10834;52.268;6.770;2023-06-14T16:25:30;24.90;41.00
21353;DHT22;10834;52.268;6.770;2023-06-14T16:28:16;24.80;40.90
21353;DHT22;10834;52.268;6.770;2023-06-14T16:31:02;24.70;42.10
21353;DHT22;10834;52.268;6.770;2023-06-14T16:33:48;24.70;42.60
21353;DHT22;10834;52.268;6.770;2023-06-14T16:36:40;24.60;41.80
21353;DHT22;10834;52.268;6.770;2023-06-14T16:39:26;24.60;42.00
21353;DHT22;10834;52.268;6.770;2023-06-14T16:42:12;24.50;42.50
21353;DHT22;10834;52.268;6.770;2023-06-14T16:44:58;24.40;42.60
21353;DHT22;10834;52.268;6.770;2023-06-14T16:47:46;24.40;42.00
21353;DHT22;10834;52.268;6.770;2023-06-14T16:50:32;24.30;42.00
21353;DHT22;10834;52.268;6.770;2023-06-14T16:53:18;24.20;43.10
21353;DHT22;10834;52.268;6.770;2023-06-14T16:56:04;24.20;41.80
21353;DHT22;10834;52.268;6.770;2023-06-14T16:58:55;24.20;41.60
21353;DHT22;10834;52.268;6.770;2023-06-14T17:01:42;24.20;42.20
21353;DHT22;10834;52.268;6.770;2023-06-14T17:04:28;24.10;42.40
21353;DHT22;10834;52.268;6.770;2023-06-14T17:07:14;24.10;42.80
21353;DHT22;10834;52.268;6.770;2023-06-14T17:10:00;24.00;42.30
21353;DHT22;10834;52.268;6.770;2023-06-14T17:12:46;24.00;42.10
21353;DHT22;10834;52.268;6.770;2023-06-14T17:15:32;24.00;42.30
21353;DHT22;10834;52.268;6.770;2023-06-14T17:18:18;24.00;41.90
21353;DHT22;10834;52.268;6.770;2023-06-14T17:21:04;24.00;42.30
21353;DHT22;10834;52.268;6.770;2023-06-14T17:23:50;24.10;42.00
21353;DHT22;10834;52.268;6.770;2023-06-14T17:26:37;24.00;42.00
21353;DHT22;10834;52.268;6.770;2023-06-14T17:29:23;24.00;42.20
21353;DHT22;10834;52.268;6.770;2023-06-14T17:32:12;24.00;43.00
21353;DHT22;10834;52.268;6.770;2023-06-14T17:34:58;23.90;43.20
21353;DHT22;10834;52.268;6.770;2023-06-14T17:37:44;23.90;43.30
21353;DHT22;10834;52.268;6.770;2023-06-14T17:40:30;23.90;43.20
21353;DHT22;10834;52.268;6.770;2023-06-14T17:43:16;23.80;42.30